sensor_id;sensor_type;location;lat;lon;timestamp;temperature;humidity
40085;DHT22;25786;51.504;7.344;2022-08-01T00:02:00;20.00;90.60
40085;DHT22;25786;51.504;7.344;2022-08-01T00:04:26;20.10;90.50
40085;DHT22;25786;51.504;7.344;2022-08-01T00:06:51;20.00;90.50
40085;DHT22;25786;51.504;7.344;2022-08-01T00:09:17;20.00;90.70
40085;DHT22;25786;51.504;7.344;2022-08-01T00:11:42;19.90;90.70
40085;DHT22;25786;51.504;7.344;2022-08-01T00:14:08;20.00;90.70
40085;DHT22;25786;51.504;7.344;2022-08-01T00:16:35;20.00;90.40
40085;DHT22;25786;51.504;7.344;2022-08-01T00:19:00;20.00;90.10
40085;DHT22;25786;51.504;7.344;2022-08-01T00:21:26;20.00;90.40
40085;DHT22;25786;51.504;7.344;2022-08-01T00:23:51;20.00;90.30
40085;DHT22;25786;51.504;7.344;2022-08-01T00:26:17;20.00;90.30
40085;DHT22;25786;51.504;7.344;2022-08-01T00:28:42;20.00;90.30
40085;DHT22;25786;51.504;7.344;2022-08-01T00:31:08;20.00;90.10
40085;DHT22;25786;51.504;7.344;2022-08-01T00:33:33;20.00;90.20
40085;DHT22;25786;51.504;7.344;2022-08-01T00:35:58;19.90;90.50
40085;DHT22;25786;51.504;7.344;2022-08-01T00:38:24;20.00;90.50
40085;DHT22;25786;51.504;7.344;2022-08-01T00:40:50;19.90;90.50
40085;DHT22;25786;51.504;7.344;2022-08-01T00:43:15;19.80;90.30
40085;DHT22;25786;51.504;7.344;2022-08-01T00:45:41;19.90;90.50
40085;DHT22;25786;51.504;7.344;2022-08-01T00:48:06;19.90;90.40
40085;DHT22;25786;51.504;7.344;2022-08-01T00:50:32;19.90;90.50
40085;DHT22;25786;51.504;7.344;2022-08-01T00:52:58;20.00;90.30
40085;DHT22;25786;51.504;7.344;2022-08-01T00:55:23;19.90;90.40
40085;DHT22;25786;51.504;7.344;2022-08-01T00:57:49;20.00;90.30
40085;DHT22;25786;51.504;7.344;2022-08-01T01:00:15;20.10;90.00
40085;DHT22;25786;51.504;7.344;2022-08-01T01:02:40;20.00;90.10
40085;DHT22;25786;51.504;7.344;2022-08-01T01:05:06;20.00;90.10
40085;DHT22;25786;51.504;7.344;2022-08-01T01:08:19;20.00;89.80
40085;DHT22;25786;51.504;7.344;2022-08-01T01:10:22;20.00;89.90
40085;DHT22;25786;51.504;7.344;2022-08-01T01:12:52;20.00;90.30
40085;DHT22;25786;51.504;7.344;2022-08-01T01:15:22;20.10;90.10
40085;DHT22;25786;51.504;7.344;2022-08-01T01:17:53;20.00;89.90
40085;DHT22;25786;51.504;7.344;2022-08-01T01:20:21;20.00;90.00
40085;DHT22;25786;51.504;7.344;2022-08-01T01:22:57;20.00;90.10
40085;DHT22;25786;51.504;7.344;2022-08-01T01:28:09;20.00;89.90
40085;DHT22;25786;51.504;7.344;2022-08-01T01:30:36;20.00;89.90
40085;DHT22;25786;51.504;7.344;2022-08-01T01:33:06;20.00;90.00
40085;DHT22;25786;51.504;7.344;2022-08-01T01:35:32;20.00;89.90
40085;DHT22;25786;51.504;7.344;2022-08-01T01:38:07;20.00;89.50
40085;DHT22;25786;51.504;7.344;2022-08-01T01:40:34;20.00;90.00
40085;DHT22;25786;51.504;7.344;2022-08-01T01:43:00;19.90;90.10
40085;DHT22;25786;51.504;7.344;2022-08-01T01:45:25;19.90;90.30
40085;DHT22;25786;51.504;7.344;2022-08-01T01:47:51;19.90;90.10
40085;DHT22;25786;51.504;7.344;2022-08-01T01:50:19;20.00;90.10
40085;DHT22;25786;51.504;7.344;2022-08-01T01:52:45;19.90;90.20
40085;DHT22;25786;51.504;7.344;2022-08-01T01:55:11;20.00;90.20
40085;DHT22;25786;51.504;7.344;2022-08-01T01:57:39;20.00;90.40
40085;DHT22;25786;51.504;7.344;2022-08-01T02:00:06;19.90;90.10
40085;DHT22;25786;51.504;7.344;2022-08-01T02:02:33;20.00;89.80
40085;DHT22;25786;51.504;7.344;2022-08-01T02:05:01;20.00;89.70
40085;DHT22;25786;51.504;7.344;2022-08-01T02:07:27;20.00;89.70
40085;DHT22;25786;51.504;7.344;2022-08-01T02:09:53;20.00;89.60
40085;DHT22;25786;51.504;7.344;2022-08-01T02:12:19;19.90;90.00
40085;DHT22;25786;51.504;7.344;2022-08-01T02:14:47;19.80;90.30
40085;DHT22;25786;51.504;7.344;2022-08-01T02:17:15;19.90;90.40
40085;DHT22;25786;51.504;7.344;2022-08-01T02:19:41;20.00;90.00
40085;DHT22;25786;51.504;7.344;2022-08-01T02:22:11;20.00;89.70
40085;DHT22;25786;51.504;7.344;2022-08-01T02:24:49;20.10;89.40
40085;DHT22;25786;51.504;7.344;2022-08-01T02:27:15;20.00;89.40
40085;DHT22;25786;51.504;7.344;2022-08-01T02:29:43;20.00;89.60
40085;DHT22;25786;51.504;7.344;2022-08-01T02:32:14;20.00;89.60
40085;DHT22;25786;51.504;7.344;2022-08-01T02:34:41;20.00;89.30
40085;DHT22;25786;51.504;7.344;2022-08-01T02:37:08;20.00;89.70
40085;DHT22;25786;51.504;7.344;2022-08-01T02:39:35;19.90;90.00
40085;DHT22;25786;51.504;7.344;2022-08-01T02:42:02;19.90;90.10
40085;DHT22;25786;51.504;7.344;2022-08-01T02:44:31;19.90;89.90
40085;DHT22;25786;51.504;7.344;2022-08-01T02:46:59;19.90;89.90
40085;DHT22;25786;51.504;7.344;2022-08-01T02:49:29;19.90;90.20
40085;DHT22;25786;51.504;7.344;2022-08-01T02:51:56;19.80;90.10
40085;DHT22;25786;51.504;7.344;2022-08-01T02:54:21;19.90;90.10
40085;DHT22;25786;51.504;7.344;2022-08-01T02:56:47;19.80;90.30
40085;DHT22;25786;51.504;7.344;2022-08-01T02:59:16;19.80;90.20
40085;DHT22;25786;51.504;7.344;2022-08-01T03:01:42;19.80;90.50
40085;DHT22;25786;51.504;7.344;2022-08-01T03:04:10;19.80;90.70
40085;DHT22;25786;51.504;7.344;2022-08-01T03:06:35;19.80;90.10
40085;DHT22;25786;51.504;7.344;2022-08-01T03:09:03;19.80;90.10
40085;DHT22;25786;51.504;7.344;2022-08-01T03:11:29;19.80;90.70
40085;DHT22;25786;51.504;7.344;2022-08-01T03:13:55;19.70;90.40
40085;DHT22;25786;51.504;7.344;2022-08-01T03:16:21;19.60;90.80
40085;DHT22;25786;51.504;7.344;2022-08-01T03:18:49;19.60;90.90
40085;DHT22;25786;51.504;7.344;2022-08-01T03:21:15;19.60;91.10
40085;DHT22;25786;51.504;7.344;2022-08-01T03:23:40;19.60;91.60
40085;DHT22;25786;51.504;7.344;2022-08-01T03:26:07;19.60;91.10
40085;DHT22;25786;51.504;7.344;2022-08-01T03:28:34;19.60;90.90
40085;DHT22;25786;51.504;7.344;2022-08-01T03:31:00;19.50;91.30
40085;DHT22;25786;51.504;7.344;2022-08-01T03:33:27;19.50;91.30
40085;DHT22;25786;51.504;7.344;2022-08-01T03:35:53;19.50;90.80
40085;DHT22;25786;51.504;7.344;2022-08-01T03:38:19;19.50;91.00
40085;DHT22;25786;51.504;7.344;2022-08-01T03:40:47;19.50;90.80
40085;DHT22;25786;51.504;7.344;2022-08-01T03:43:34;19.50;91.00
40085;DHT22;25786;51.504;7.344;2022-08-01T03:46:04;19.50;91.20
40085;DHT22;25786;51.504;7.344;2022-08-01T03:48:32;19.50;91.10
40085;DHT22;25786;51.504;7.344;2022-08-01T03:51:01;19.50;91.30
40085;DHT22;25786;51.504;7.344;2022-08-01T03:53:29;19.50;91.50
40085;DHT22;25786;51.504;7.344;2022-08-01T03:55:55;19.50;91.20
40085;DHT22;25786;51.504;7.344;2022-08-01T03:58:21;19.50;91.50
40085;DHT22;25786;51.504;7.344;2022-08-01T04:00:47;19.50;91.50
40085;DHT22;25786;51.504;7.344;2022-08-01T04:03:13;19.50;91.40
40085;DHT22;25786;51.504;7.344;2022-08-01T04:05:41;19.50;91.70
40085;DHT22;25786;51.504;7.344;2022-08-01T04:08:07;19.50;91.20
40085;DHT22;25786;51.504;7.344;2022-08-01T04:10:33;19.50;91.00
40085;DHT22;25786;51.504;7.344;2022-08-01T04:12:58;19.60;90.40
40085;DHT22;25786;51.504;7.344;2022-08-01T04:15:24;19.60;90.60
40085;DHT22;25786;51.504;7.344;2022-08-01T04:17:49;19.50;90.70
40085;DHT22;25786;51.504;7.344;2022-08-01T04:20:15;19.50;91.10
40085;DHT22;25786;51.504;7.344;2022-08-01T04:22:40;19.60;91.40
40085;DHT22;25786;51.504;7.344;2022-08-01T04:25:07;19.60;91.40
40085;DHT22;25786;51.504;7.344;2022-08-01T04:27:38;19.60;91.10
40085;DHT22;25786;51.504;7.344;2022-08-01T04:30:04;19.60;90.80
40085;DHT22;25786;51.504;7.344;2022-08-01T04:32:31;19.70;90.30
40085;DHT22;25786;51.504;7.344;2022-08-01T04:34:59;19.70;90.50
40085;DHT22;25786;51.504;7.344;2022-08-01T04:37:25;19.60;90.40
40085;DHT22;25786;51.504;7.344;2022-08-01T04:39:51;19.60;90.30
40085;DHT22;25786;51.504;7.344;2022-08-01T04:42:17;19.60;90.10
40085;DHT22;25786;51.504;7.344;2022-08-01T04:44:43;19.60;90.00
40085;DHT22;25786;51.504;7.344;2022-08-01T04:47:09;19.60;89.90
40085;DHT22;25786;51.504;7.344;2022-08-01T04:49:35;19.60;90.20
40085;DHT22;25786;51.504;7.344;2022-08-01T04:52:00;19.50;90.40
40085;DHT22;25786;51.504;7.344;2022-08-01T04:54:26;19.60;90.20
40085;DHT22;25786;51.504;7.344;2022-08-01T04:56:52;19.50;90.00
40085;DHT22;25786;51.504;7.344;2022-08-01T04:59:19;19.50;89.90
40085;DHT22;25786;51.504;7.344;2022-08-01T05:02:03;19.50;89.20
40085;DHT22;25786;51.504;7.344;2022-08-01T05:04:29;19.60;89.20
40085;DHT22;25786;51.504;7.344;2022-08-01T05:06:54;19.60;89.10
40085;DHT22;25786;51.504;7.344;2022-08-01T05:09:20;19.60;89.00
40085;DHT22;25786;51.504;7.344;2022-08-01T05:11:45;19.60;88.90
40085;DHT22;25786;51.504;7.344;2022-08-01T05:14:11;19.60;89.00
40085;DHT22;25786;51.504;7.344;2022-08-01T05:16:36;19.60;89.40
40085;DHT22;25786;51.504;7.344;2022-08-01T05:19:02;19.60;89.70
40085;DHT22;25786;51.504;7.344;2022-08-01T05:21:27;19.60;90.00
40085;DHT22;25786;51.504;7.344;2022-08-01T05:23:53;19.60;89.80
40085;DHT22;25786;51.504;7.344;2022-08-01T05:26:18;19.60;90.00
40085;DHT22;25786;51.504;7.344;2022-08-01T05:28:44;19.60;90.30
40085;DHT22;25786;51.504;7.344;2022-08-01T05:31:09;19.60;89.50
40085;DHT22;25786;51.504;7.344;2022-08-01T05:33:34;19.60;89.80
40085;DHT22;25786;51.504;7.344;2022-08-01T05:36:00;19.60;89.60
40085;DHT22;25786;51.504;7.344;2022-08-01T05:38:25;19.70;89.30
40085;DHT22;25786;51.504;7.344;2022-08-01T05:40:51;19.70;89.00
40085;DHT22;25786;51.504;7.344;2022-08-01T05:43:16;19.80;89.10
40085;DHT22;25786;51.504;7.344;2022-08-01T05:45:42;19.80;88.90
40085;DHT22;25786;51.504;7.344;2022-08-01T05:48:07;19.80;88.80
40085;DHT22;25786;51.504;7.344;2022-08-01T05:50:33;19.80;89.30
40085;DHT22;25786;51.504;7.344;2022-08-01T05:52:59;19.90;89.30
40085;DHT22;25786;51.504;7.344;2022-08-01T05:55:24;19.80;88.60
40085;DHT22;25786;51.504;7.344;2022-08-01T05:57:49;19.90;88.80
40085;DHT22;25786;51.504;7.344;2022-08-01T06:00:15;19.80;89.10
40085;DHT22;25786;51.504;7.344;2022-08-01T06:02:41;19.80;88.20
40085;DHT22;25786;51.504;7.344;2022-08-01T06:05:08;19.90;88.30
40085;DHT22;25786;51.504;7.344;2022-08-01T06:07:33;19.90;88.20
40085;DHT22;25786;51.504;7.344;2022-08-01T06:09:59;20.00;88.40
40085;DHT22;25786;51.504;7.344;2022-08-01T06:12:24;20.00;88.50
40085;DHT22;25786;51.504;7.344;2022-08-01T06:14:50;20.10;88.00
40085;DHT22;25786;51.504;7.344;2022-08-01T06:17:15;20.10;87.60
40085;DHT22;25786;51.504;7.344;2022-08-01T06:19:41;20.20;87.00
40085;DHT22;25786;51.504;7.344;2022-08-01T06:22:06;20.10;87.30
40085;DHT22;25786;51.504;7.344;2022-08-01T06:24:32;20.00;87.20
40085;DHT22;25786;51.504;7.344;2022-08-01T06:26:57;20.10;86.50
40085;DHT22;25786;51.504;7.344;2022-08-01T06:29:22;20.00;87.00
40085;DHT22;25786;51.504;7.344;2022-08-01T06:31:48;20.10;86.90
40085;DHT22;25786;51.504;7.344;2022-08-01T06:34:13;20.10;86.40
40085;DHT22;25786;51.504;7.344;2022-08-01T06:36:40;20.30;86.00
40085;DHT22;25786;51.504;7.344;2022-08-01T06:39:05;20.30;86.30
40085;DHT22;25786;51.504;7.344;2022-08-01T06:41:31;20.30;86.70
40085;DHT22;25786;51.504;7.344;2022-08-01T06:43:56;20.50;86.50
40085;DHT22;25786;51.504;7.344;2022-08-01T06:46:22;20.50;86.10
40085;DHT22;25786;51.504;7.344;2022-08-01T06:48:47;20.50;85.80
40085;DHT22;25786;51.504;7.344;2022-08-01T06:51:13;20.60;86.50
40085;DHT22;25786;51.504;7.344;2022-08-01T06:53:41;20.60;86.00
40085;DHT22;25786;51.504;7.344;2022-08-01T06:56:07;20.70;86.30
40085;DHT22;25786;51.504;7.344;2022-08-01T06:58:34;20.80;84.80
40085;DHT22;25786;51.504;7.344;2022-08-01T07:01:00;20.80;84.90
40085;DHT22;25786;51.504;7.344;2022-08-01T07:03:26;20.80;84.50
40085;DHT22;25786;51.504;7.344;2022-08-01T07:05:52;20.80;84.80
40085;DHT22;25786;51.504;7.344;2022-08-01T07:08:17;20.90;84.70
40085;DHT22;25786;51.504;7.344;2022-08-01T07:10:43;20.90;84.80
40085;DHT22;25786;51.504;7.344;2022-08-01T07:13:10;20.90;83.50
40085;DHT22;25786;51.504;7.344;2022-08-01T07:15:37;20.80;84.40
40085;DHT22;25786;51.504;7.344;2022-08-01T07:18:02;20.80;84.40
40085;DHT22;25786;51.504;7.344;2022-08-01T07:20:29;20.90;84.70
40085;DHT22;25786;51.504;7.344;2022-08-01T07:22:54;20.80;84.50
40085;DHT22;25786;51.504;7.344;2022-08-01T07:25:20;20.90;84.50
40085;DHT22;25786;51.504;7.344;2022-08-01T07:27:45;20.90;83.70
40085;DHT22;25786;51.504;7.344;2022-08-01T07:30:11;20.90;83.90
40085;DHT22;25786;51.504;7.344;2022-08-01T07:32:36;20.90;83.10
40085;DHT22;25786;51.504;7.344;2022-08-01T07:35:02;21.00;83.60
40085;DHT22;25786;51.504;7.344;2022-08-01T07:37:28;21.10;83.60
40085;DHT22;25786;51.504;7.344;2022-08-01T07:39:53;21.10;82.90
40085;DHT22;25786;51.504;7.344;2022-08-01T07:42:19;21.10;83.20
40085;DHT22;25786;51.504;7.344;2022-08-01T07:44:44;21.10;83.40
40085;DHT22;25786;51.504;7.344;2022-08-01T07:47:10;21.10;82.80
40085;DHT22;25786;51.504;7.344;2022-08-01T07:49:35;21.20;82.70
40085;DHT22;25786;51.504;7.344;2022-08-01T07:52:01;21.30;82.90
40085;DHT22;25786;51.504;7.344;2022-08-01T07:54:26;21.30;82.90
40085;DHT22;25786;51.504;7.344;2022-08-01T07:56:53;21.30;83.00
40085;DHT22;25786;51.504;7.344;2022-08-01T07:59:19;21.30;81.20
40085;DHT22;25786;51.504;7.344;2022-08-01T08:01:48;21.30;80.80
40085;DHT22;25786;51.504;7.344;2022-08-01T08:04:14;21.50;80.30
40085;DHT22;25786;51.504;7.344;2022-08-01T08:06:40;21.60;80.00
40085;DHT22;25786;51.504;7.344;2022-08-01T08:09:06;21.60;80.20
40085;DHT22;25786;51.504;7.344;2022-08-01T08:11:32;21.60;80.10
40085;DHT22;25786;51.504;7.344;2022-08-01T08:13:57;21.70;80.90
40085;DHT22;25786;51.504;7.344;2022-08-01T08:16:22;21.90;78.80
40085;DHT22;25786;51.504;7.344;2022-08-01T08:18:48;21.90;79.40
40085;DHT22;25786;51.504;7.344;2022-08-01T08:21:13;21.80;80.40
40085;DHT22;25786;51.504;7.344;2022-08-01T08:23:39;21.90;78.00
40085;DHT22;25786;51.504;7.344;2022-08-01T08:26:23;21.90;77.80
40085;DHT22;25786;51.504;7.344;2022-08-01T08:28:49;21.90;78.00
40085;DHT22;25786;51.504;7.344;2022-08-01T08:31:15;22.00;77.30
40085;DHT22;25786;51.504;7.344;2022-08-01T08:33:40;22.10;77.30
40085;DHT22;25786;51.504;7.344;2022-08-01T08:36:05;22.20;77.70
40085;DHT22;25786;51.504;7.344;2022-08-01T08:38:31;22.40;76.40
40085;DHT22;25786;51.504;7.344;2022-08-01T08:40:57;22.50;76.60
40085;DHT22;25786;51.504;7.344;2022-08-01T08:43:22;22.50;75.20
40085;DHT22;25786;51.504;7.344;2022-08-01T08:45:49;22.50;76.60
40085;DHT22;25786;51.504;7.344;2022-08-01T08:48:15;22.50;75.10
40085;DHT22;25786;51.504;7.344;2022-08-01T08:50:42;22.50;75.00
40085;DHT22;25786;51.504;7.344;2022-08-01T08:53:09;22.50;75.90
40085;DHT22;25786;51.504;7.344;2022-08-01T08:55:34;22.30;73.20
40085;DHT22;25786;51.504;7.344;2022-08-01T08:58:00;22.30;72.80
40085;DHT22;25786;51.504;7.344;2022-08-01T09:00:31;22.20;73.30
40085;DHT22;25786;51.504;7.344;2022-08-01T09:02:57;22.20;72.70
40085;DHT22;25786;51.504;7.344;2022-08-01T09:05:22;22.40;73.20
40085;DHT22;25786;51.504;7.344;2022-08-01T09:07:51;22.50;72.30
40085;DHT22;25786;51.504;7.344;2022-08-01T09:10:17;22.60;72.60
40085;DHT22;25786;51.504;7.344;2022-08-01T09:13:01;22.60;70.40
40085;DHT22;25786;51.504;7.344;2022-08-01T09:15:43;22.60;70.70
40085;DHT22;25786;51.504;7.344;2022-08-01T09:18:25;22.60;70.60
40085;DHT22;25786;51.504;7.344;2022-08-01T09:21:06;22.60;72.60
40085;DHT22;25786;51.504;7.344;2022-08-01T09:23:33;22.60;71.00
40085;DHT22;25786;51.504;7.344;2022-08-01T09:25:58;22.60;71.70
40085;DHT22;25786;51.504;7.344;2022-08-01T09:28:28;22.50;71.80
40085;DHT22;25786;51.504;7.344;2022-08-01T09:30:53;22.50;72.90
40085;DHT22;25786;51.504;7.344;2022-08-01T09:33:20;22.40;72.60
40085;DHT22;25786;51.504;7.344;2022-08-01T09:35:46;22.50;73.00
40085;DHT22;25786;51.504;7.344;2022-08-01T09:40:54;22.80;71.40
40085;DHT22;25786;51.504;7.344;2022-08-01T09:43:21;23.20;69.70
40085;DHT22;25786;51.504;7.344;2022-08-01T09:45:47;23.20;72.70
40085;DHT22;25786;51.504;7.344;2022-08-01T09:48:12;23.10;70.50
40085;DHT22;25786;51.504;7.344;2022-08-01T09:50:45;23.00;71.80
40085;DHT22;25786;51.504;7.344;2022-08-01T09:53:11;23.10;69.00
40085;DHT22;25786;51.504;7.344;2022-08-01T09:55:37;23.10;68.50
40085;DHT22;25786;51.504;7.344;2022-08-01T09:58:03;23.20;70.30
40085;DHT22;25786;51.504;7.344;2022-08-01T10:00:30;23.30;67.90
40085;DHT22;25786;51.504;7.344;2022-08-01T10:02:55;23.30;67.60
40085;DHT22;25786;51.504;7.344;2022-08-01T10:05:29;23.30;68.10
40085;DHT22;25786;51.504;7.344;2022-08-01T10:07:56;23.30;68.50
40085;DHT22;25786;51.504;7.344;2022-08-01T10:10:21;23.20;66.70
40085;DHT22;25786;51.504;7.344;2022-08-01T10:12:47;23.10;66.50
40085;DHT22;25786;51.504;7.344;2022-08-01T10:15:16;23.00;68.30
40085;DHT22;25786;51.504;7.344;2022-08-01T10:17:44;23.10;66.90
40085;DHT22;25786;51.504;7.344;2022-08-01T10:20:11;23.10;68.80
40085;DHT22;25786;51.504;7.344;2022-08-01T10:22:37;23.30;69.20
40085;DHT22;25786;51.504;7.344;2022-08-01T10:25:03;23.50;68.00
40085;DHT22;25786;51.504;7.344;2022-08-01T10:27:29;23.80;67.90
40085;DHT22;25786;51.504;7.344;2022-08-01T10:29:56;24.10;66.90
40085;DHT22;25786;51.504;7.344;2022-08-01T10:32:22;24.30;65.50
40085;DHT22;25786;51.504;7.344;2022-08-01T10:34:49;24.20;63.70
40085;DHT22;25786;51.504;7.344;2022-08-01T10:37:14;24.30;63.10
40085;DHT22;25786;51.504;7.344;2022-08-01T10:39:40;24.30;61.70
40085;DHT22;25786;51.504;7.344;2022-08-01T10:42:05;24.30;61.30
40085;DHT22;25786;51.504;7.344;2022-08-01T10:44:34;24.20;63.00
40085;DHT22;25786;51.504;7.344;2022-08-01T10:47:09;24.00;64.30
40085;DHT22;25786;51.504;7.344;2022-08-01T10:49:36;23.60;67.60
40085;DHT22;25786;51.504;7.344;2022-08-01T10:52:04;23.30;68.70
40085;DHT22;25786;51.504;7.344;2022-08-01T10:54:29;23.30;69.30
40085;DHT22;25786;51.504;7.344;2022-08-01T10:57:03;23.40;69.80
40085;DHT22;25786;51.504;7.344;2022-08-01T10:59:31;23.50;68.80
40085;DHT22;25786;51.504;7.344;2022-08-01T11:02:03;23.30;68.90
40085;DHT22;25786;51.504;7.344;2022-08-01T11:04:41;23.30;69.40
40085;DHT22;25786;51.504;7.344;2022-08-01T11:07:11;23.50;68.80
40085;DHT22;25786;51.504;7.344;2022-08-01T11:12:05;23.40;69.20
40085;DHT22;25786;51.504;7.344;2022-08-01T11:14:32;23.20;69.90
40085;DHT22;25786;51.504;7.344;2022-08-01T11:22:27;23.70;66.70
40085;DHT22;25786;51.504;7.344;2022-08-01T11:24:56;23.80;66.50
40085;DHT22;25786;51.504;7.344;2022-08-01T11:27:26;23.80;66.80
40085;DHT22;25786;51.504;7.344;2022-08-01T11:32:49;23.90;66.50
40085;DHT22;25786;51.504;7.344;2022-08-01T11:35:15;24.00;66.30
40085;DHT22;25786;51.504;7.344;2022-08-01T11:37:41;24.10;66.40
40085;DHT22;25786;51.504;7.344;2022-08-01T11:40:20;24.00;66.80
40085;DHT22;25786;51.504;7.344;2022-08-01T11:42:50;24.10;65.90
40085;DHT22;25786;51.504;7.344;2022-08-01T11:45:15;24.00;66.30
40085;DHT22;25786;51.504;7.344;2022-08-01T11:52:58;23.90;66.30
40085;DHT22;25786;51.504;7.344;2022-08-01T11:55:24;23.80;66.20
40085;DHT22;25786;51.504;7.344;2022-08-01T11:57:49;23.70;66.10
40085;DHT22;25786;51.504;7.344;2022-08-01T12:00:16;23.60;67.20
40085;DHT22;25786;51.504;7.344;2022-08-01T12:02:42;23.60;66.50
40085;DHT22;25786;51.504;7.344;2022-08-01T12:05:15;23.60;66.20
40085;DHT22;25786;51.504;7.344;2022-08-01T12:07:43;23.70;65.80
40085;DHT22;25786;51.504;7.344;2022-08-01T12:10:10;23.70;66.60
40085;DHT22;25786;51.504;7.344;2022-08-01T12:12:37;23.80;66.60
40085;DHT22;25786;51.504;7.344;2022-08-01T12:15:07;23.50;67.30
40085;DHT22;25786;51.504;7.344;2022-08-01T12:20:05;23.70;66.60
40085;DHT22;25786;51.504;7.344;2022-08-01T12:22:31;23.70;66.90
40085;DHT22;25786;51.504;7.344;2022-08-01T12:25:04;24.00;65.30
40085;DHT22;25786;51.504;7.344;2022-08-01T12:27:30;24.10;64.70
40085;DHT22;25786;51.504;7.344;2022-08-01T12:29:56;24.00;63.80
40085;DHT22;25786;51.504;7.344;2022-08-01T12:32:26;24.00;64.10
40085;DHT22;25786;51.504;7.344;2022-08-01T12:34:52;23.80;64.10
40085;DHT22;25786;51.504;7.344;2022-08-01T12:37:18;23.60;66.10
40085;DHT22;25786;51.504;7.344;2022-08-01T12:39:44;23.60;66.50
40085;DHT22;25786;51.504;7.344;2022-08-01T12:42:11;23.70;66.10
40085;DHT22;25786;51.504;7.344;2022-08-01T12:44:37;23.60;67.20
40085;DHT22;25786;51.504;7.344;2022-08-01T12:47:03;23.50;66.70
40085;DHT22;25786;51.504;7.344;2022-08-01T12:49:30;23.50;67.70
40085;DHT22;25786;51.504;7.344;2022-08-01T12:51:56;23.80;67.10
40085;DHT22;25786;51.504;7.344;2022-08-01T12:54:22;24.10;65.10
40085;DHT22;25786;51.504;7.344;2022-08-01T12:56:50;24.10;65.10
40085;DHT22;25786;51.504;7.344;2022-08-01T12:59:25;24.00;64.40
40085;DHT22;25786;51.504;7.344;2022-08-01T13:01:52;23.60;65.20
40085;DHT22;25786;51.504;7.344;2022-08-01T13:04:18;23.50;65.90
40085;DHT22;25786;51.504;7.344;2022-08-01T13:06:46;23.50;65.80
40085;DHT22;25786;51.504;7.344;2022-08-01T13:09:11;23.60;65.00
40085;DHT22;25786;51.504;7.344;2022-08-01T13:11:38;23.70;65.00
40085;DHT22;25786;51.504;7.344;2022-08-01T13:14:04;23.50;66.30
40085;DHT22;25786;51.504;7.344;2022-08-01T13:16:29;23.30;65.10
40085;DHT22;25786;51.504;7.344;2022-08-01T13:18:56;23.20;65.40
40085;DHT22;25786;51.504;7.344;2022-08-01T13:21:26;23.10;66.30
40085;DHT22;25786;51.504;7.344;2022-08-01T13:24:07;23.10;67.10
40085;DHT22;25786;51.504;7.344;2022-08-01T13:26:39;23.30;66.10
40085;DHT22;25786;51.504;7.344;2022-08-01T13:29:05;23.60;64.70
40085;DHT22;25786;51.504;7.344;2022-08-01T13:31:37;23.90;63.70
40085;DHT22;25786;51.504;7.344;2022-08-01T13:34:03;23.90;62.40
40085;DHT22;25786;51.504;7.344;2022-08-01T13:36:29;24.00;63.10
40085;DHT22;25786;51.504;7.344;2022-08-01T13:38:56;23.90;63.70
40085;DHT22;25786;51.504;7.344;2022-08-01T13:41:40;23.70;64.60
40085;DHT22;25786;51.504;7.344;2022-08-01T13:44:06;23.80;63.70
40085;DHT22;25786;51.504;7.344;2022-08-01T13:46:34;24.00;62.40
40085;DHT22;25786;51.504;7.344;2022-08-01T13:48:59;23.80;63.70
40085;DHT22;25786;51.504;7.344;2022-08-01T13:51:25;23.90;63.60
40085;DHT22;25786;51.504;7.344;2022-08-01T13:53:50;24.10;62.70
40085;DHT22;25786;51.504;7.344;2022-08-01T13:56:16;24.10;63.70
40085;DHT22;25786;51.504;7.344;2022-08-01T13:58:42;24.20;62.80
40085;DHT22;25786;51.504;7.344;2022-08-01T14:01:08;24.10;63.70
40085;DHT22;25786;51.504;7.344;2022-08-01T14:03:34;24.30;63.20
40085;DHT22;25786;51.504;7.344;2022-08-01T14:05:59;24.40;62.40
40085;DHT22;25786;51.504;7.344;2022-08-01T14:08:25;24.40;61.20
40085;DHT22;25786;51.504;7.344;2022-08-01T14:10:51;24.60;61.40
40085;DHT22;25786;51.504;7.344;2022-08-01T14:13:17;24.40;60.50
40085;DHT22;25786;51.504;7.344;2022-08-01T14:15:42;24.20;61.50
40085;DHT22;25786;51.504;7.344;2022-08-01T14:18:08;23.90;62.00
40085;DHT22;25786;51.504;7.344;2022-08-01T14:20:34;23.90;64.30
40085;DHT22;25786;51.504;7.344;2022-08-01T14:22:59;23.90;62.20
40085;DHT22;25786;51.504;7.344;2022-08-01T14:25:25;24.00;61.80
40085;DHT22;25786;51.504;7.344;2022-08-01T14:27:50;24.00;62.00
40085;DHT22;25786;51.504;7.344;2022-08-01T14:30:15;24.00;61.90
40085;DHT22;25786;51.504;7.344;2022-08-01T14:32:41;24.00;63.00
40085;DHT22;25786;51.504;7.344;2022-08-01T14:35:07;24.00;63.20
40085;DHT22;25786;51.504;7.344;2022-08-01T14:37:32;24.00;63.80
40085;DHT22;25786;51.504;7.344;2022-08-01T14:39:58;23.80;64.70
40085;DHT22;25786;51.504;7.344;2022-08-01T14:42:24;23.70;63.60
40085;DHT22;25786;51.504;7.344;2022-08-01T14:44:50;23.50;64.40
40085;DHT22;25786;51.504;7.344;2022-08-01T14:47:16;23.60;63.40
40085;DHT22;25786;51.504;7.344;2022-08-01T14:49:41;23.50;65.40
40085;DHT22;25786;51.504;7.344;2022-08-01T14:52:07;23.60;63.10
40085;DHT22;25786;51.504;7.344;2022-08-01T14:54:32;23.50;65.30
40085;DHT22;25786;51.504;7.344;2022-08-01T14:56:58;23.50;63.90
40085;DHT22;25786;51.504;7.344;2022-08-01T14:59:23;23.30;64.00
40085;DHT22;25786;51.504;7.344;2022-08-01T15:01:49;23.40;64.40
40085;DHT22;25786;51.504;7.344;2022-08-01T15:04:14;23.50;64.80
40085;DHT22;25786;51.504;7.344;2022-08-01T15:06:39;23.50;64.80
40085;DHT22;25786;51.504;7.344;2022-08-01T15:09:05;23.60;65.00
40085;DHT22;25786;51.504;7.344;2022-08-01T15:11:30;23.60;64.40
40085;DHT22;25786;51.504;7.344;2022-08-01T15:13:56;23.50;65.40
40085;DHT22;25786;51.504;7.344;2022-08-01T15:16:40;23.50;65.00
40085;DHT22;25786;51.504;7.344;2022-08-01T15:19:05;23.40;65.80
40085;DHT22;25786;51.504;7.344;2022-08-01T15:21:31;23.50;66.00
40085;DHT22;25786;51.504;7.344;2022-08-01T15:23:56;23.50;66.20
40085;DHT22;25786;51.504;7.344;2022-08-01T15:26:22;23.40;64.90
40085;DHT22;25786;51.504;7.344;2022-08-01T15:28:47;23.40;67.00
40085;DHT22;25786;51.504;7.344;2022-08-01T15:31:14;23.60;63.30
40085;DHT22;25786;51.504;7.344;2022-08-01T15:33:39;23.70;64.40
40085;DHT22;25786;51.504;7.344;2022-08-01T15:36:05;23.80;63.60
40085;DHT22;25786;51.504;7.344;2022-08-01T15:38:30;23.70;64.50
40085;DHT22;25786;51.504;7.344;2022-08-01T15:40:56;23.80;63.60
40085;DHT22;25786;51.504;7.344;2022-08-01T15:43:22;24.00;62.40
40085;DHT22;25786;51.504;7.344;2022-08-01T15:45:47;24.10;63.10
40085;DHT22;25786;51.504;7.344;2022-08-01T15:48:13;23.90;63.40
40085;DHT22;25786;51.504;7.344;2022-08-01T15:50:38;23.80;63.20
40085;DHT22;25786;51.504;7.344;2022-08-01T15:53:04;23.80;62.90